sensor_id;sensor_type;location;lat;lon;timestamp;temperature;humidity
60495;DHT22;46342;49.046;11.920;2023-08-31T00:02:20;16.70;68.40
60495;DHT22;46342;49.046;11.920;2023-08-31T00:04:46;16.70;68.40
60495;DHT22;46342;49.046;11.920;2023-08-31T00:07:11;16.80;68.60
60495;DHT22;46342;49.046;11.920;2023-08-31T00:09:37;16.70;68.50
60495;DHT22;46342;49.046;11.920;2023-08-31T00:12:03;16.70;68.60
60495;DHT22;46342;49.046;11.920;2023-08-31T00:14:28;16.70;68.70
60495;DHT22;46342;49.046;11.920;2023-08-31T00:16:54;16.70;68.80
60495;DHT22;46342;49.046;11.920;2023-08-31T00:19:23;16.70;68.80
60495;DHT22;46342;49.046;11.920;2023-08-31T00:21:48;16.70;68.90
60495;DHT22;46342;49.046;11.920;2023-08-31T00:24:14;16.80;69.10
60495;DHT22;46342;49.046;11.920;2023-08-31T00:26:39;16.70;69.20
60495;DHT22;46342;49.046;11.920;2023-08-31T00:29:07;16.60;69.10
60495;DHT22;46342;49.046;11.920;2023-08-31T00:31:32;16.60;69.20
60495;DHT22;46342;49.046;11.920;2023-08-31T00:33:59;16.60;69.20
60495;DHT22;46342;49.046;11.920;2023-08-31T00:36:29;16.60;69.20
60495;DHT22;46342;49.046;11.920;2023-08-31T00:38:54;17.00;69.60
60495;DHT22;46342;49.046;11.920;2023-08-31T00:41:21;16.60;69.30
60495;DHT22;46342;49.046;11.920;2023-08-31T00:43:47;16.60;69.40
60495;DHT22;46342;49.046;11.920;2023-08-31T00:46:13;16.60;69.50
60495;DHT22;46342;49.046;11.920;2023-08-31T00:48:40;16.60;70.50
60495;DHT22;46342;49.046;11.920;2023-08-31T00:51:06;16.60;69.60
60495;DHT22;46342;49.046;11.920;2023-08-31T00:53:33;16.60;69.60
60495;DHT22;46342;49.046;11.920;2023-08-31T00:55:59;16.60;69.60
60495;DHT22;46342;49.046;11.920;2023-08-31T00:58:24;16.60;69.60
60495;DHT22;46342;49.046;11.920;2023-08-31T01:07:08;16.60;70.30
60495;DHT22;46342;49.046;11.920;2023-08-31T01:09:55;16.70;70.50
60495;DHT22;46342;49.046;11.920;2023-08-31T01:12:29;17.00;70.60
60495;DHT22;46342;49.046;11.920;2023-08-31T01:15:09;16.60;69.70
60495;DHT22;46342;49.046;11.920;2023-08-31T01:17:40;16.60;69.90
60495;DHT22;46342;49.046;11.920;2023-08-31T01:20:08;16.60;69.80
60495;DHT22;46342;49.046;11.920;2023-08-31T01:23:00;16.50;69.50
60495;DHT22;46342;49.046;11.920;2023-08-31T01:25:29;16.50;70.10
60495;DHT22;46342;49.046;11.920;2023-08-31T01:27:56;16.50;69.50
60495;DHT22;46342;49.046;11.920;2023-08-31T01:30:22;16.50;69.50
60495;DHT22;46342;49.046;11.920;2023-08-31T01:32:47;16.50;69.70
60495;DHT22;46342;49.046;11.920;2023-08-31T01:35:15;16.40;69.60
60495;DHT22;46342;49.046;11.920;2023-08-31T01:37:58;16.40;69.90
60495;DHT22;46342;49.046;11.920;2023-08-31T01:40:31;16.50;70.40
60495;DHT22;46342;49.046;11.920;2023-08-31T01:43:01;16.40;70.00
60495;DHT22;46342;49.046;11.920;2023-08-31T01:45:28;16.50;70.00
60495;DHT22;46342;49.046;11.920;2023-08-31T01:47:55;16.40;69.90
60495;DHT22;46342;49.046;11.920;2023-08-31T01:50:21;16.40;70.00
60495;DHT22;46342;49.046;11.920;2023-08-31T01:52:47;16.70;70.30
60495;DHT22;46342;49.046;11.920;2023-08-31T01:55:12;16.40;70.00
60495;DHT22;46342;49.046;11.920;2023-08-31T01:57:41;16.70;70.50
60495;DHT22;46342;49.046;11.920;2023-08-31T02:00:08;16.40;70.20
60495;DHT22;46342;49.046;11.920;2023-08-31T02:02:35;16.30;70.10
60495;DHT22;46342;49.046;11.920;2023-08-31T02:05:01;16.80;70.60
60495;DHT22;46342;49.046;11.920;2023-08-31T02:07:27;16.30;70.10
60495;DHT22;46342;49.046;11.920;2023-08-31T02:09:53;16.30;70.10
60495;DHT22;46342;49.046;11.920;2023-08-31T02:12:18;16.40;70.20
60495;DHT22;46342;49.046;11.920;2023-08-31T02:14:44;16.30;70.20
60495;DHT22;46342;49.046;11.920;2023-08-31T02:17:09;16.30;70.30
60495;DHT22;46342;49.046;11.920;2023-08-31T02:19:35;16.30;71.20
60495;DHT22;46342;49.046;11.920;2023-08-31T02:22:00;16.30;70.30
60495;DHT22;46342;49.046;11.920;2023-08-31T02:24:26;16.30;70.30
60495;DHT22;46342;49.046;11.920;2023-08-31T02:26:51;16.30;70.40
60495;DHT22;46342;49.046;11.920;2023-08-31T02:29:17;16.40;70.60
60495;DHT22;46342;49.046;11.920;2023-08-31T02:31:43;16.30;70.50
60495;DHT22;46342;49.046;11.920;2023-08-31T02:34:08;16.30;70.50
60495;DHT22;46342;49.046;11.920;2023-08-31T02:36:34;16.30;70.60
60495;DHT22;46342;49.046;11.920;2023-08-31T02:38:59;16.30;70.70
60495;DHT22;46342;49.046;11.920;2023-08-31T02:41:25;16.30;70.70
60495;DHT22;46342;49.046;11.920;2023-08-31T02:43:52;16.60;70.90
60495;DHT22;46342;49.046;11.920;2023-08-31T02:46:18;16.30;70.70
60495;DHT22;46342;49.046;11.920;2023-08-31T02:48:44;16.30;70.70
60495;DHT22;46342;49.046;11.920;2023-08-31T02:51:09;16.30;70.70
60495;DHT22;46342;49.046;11.920;2023-08-31T02:53:35;16.30;70.70
60495;DHT22;46342;49.046;11.920;2023-08-31T02:56:01;16.30;70.70
60495;DHT22;46342;49.046;11.920;2023-08-31T02:58:26;16.30;70.70
60495;DHT22;46342;49.046;11.920;2023-08-31T03:00:52;16.30;70.70
60495;DHT22;46342;49.046;11.920;2023-08-31T03:03:18;16.30;70.70
60495;DHT22;46342;49.046;11.920;2023-08-31T03:05:45;16.30;70.70
60495;DHT22;46342;49.046;11.920;2023-08-31T03:08:11;16.30;70.80
60495;DHT22;46342;49.046;11.920;2023-08-31T03:10:38;16.20;70.70
60495;DHT22;46342;49.046;11.920;2023-08-31T03:13:04;16.30;70.90
60495;DHT22;46342;49.046;11.920;2023-08-31T03:15:32;16.20;70.50
60495;DHT22;46342;49.046;11.920;2023-08-31T03:17:57;16.40;70.80
60495;DHT22;46342;49.046;11.920;2023-08-31T03:20:23;16.20;70.60
60495;DHT22;46342;49.046;11.920;2023-08-31T03:22:48;16.20;70.50
60495;DHT22;46342;49.046;11.920;2023-08-31T03:25:14;16.20;70.50
60495;DHT22;46342;49.046;11.920;2023-08-31T03:27:39;16.20;70.50
60495;DHT22;46342;49.046;11.920;2023-08-31T03:30:05;16.20;70.70
60495;DHT22;46342;49.046;11.920;2023-08-31T03:32:31;16.20;70.70
60495;DHT22;46342;49.046;11.920;2023-08-31T03:34:56;16.10;70.60
60495;DHT22;46342;49.046;11.920;2023-08-31T03:37:22;16.20;70.80
60495;DHT22;46342;49.046;11.920;2023-08-31T03:39:48;16.10;70.80
60495;DHT22;46342;49.046;11.920;2023-08-31T03:42:13;16.20;70.90
60495;DHT22;46342;49.046;11.920;2023-08-31T03:44:39;16.10;70.80
60495;DHT22;46342;49.046;11.920;2023-08-31T03:47:05;16.10;70.80
60495;DHT22;46342;49.046;11.920;2023-08-31T03:49:30;16.10;70.90
60495;DHT22;46342;49.046;11.920;2023-08-31T03:51:57;16.10;71.00
60495;DHT22;46342;49.046;11.920;2023-08-31T03:54:23;16.10;71.00
60495;DHT22;46342;49.046;11.920;2023-08-31T03:56:49;16.10;71.10
60495;DHT22;46342;49.046;11.920;2023-08-31T03:59:14;16.10;71.20
60495;DHT22;46342;49.046;11.920;2023-08-31T04:01:40;16.10;71.20
60495;DHT22;46342;49.046;11.920;2023-08-31T04:04:05;16.10;71.20
60495;DHT22;46342;49.046;11.920;2023-08-31T04:06:31;16.10;71.20
60495;DHT22;46342;49.046;11.920;2023-08-31T04:08:57;16.10;71.20
60495;DHT22;46342;49.046;11.920;2023-08-31T04:11:24;16.00;71.00
60495;DHT22;46342;49.046;11.920;2023-08-31T04:13:50;16.60;71.70
60495;DHT22;46342;49.046;11.920;2023-08-31T04:16:15;16.00;71.10
60495;DHT22;46342;49.046;11.920;2023-08-31T04:18:41;16.00;71.10
60495;DHT22;46342;49.046;11.920;2023-08-31T04:21:06;16.00;71.20
60495;DHT22;46342;49.046;11.920;2023-08-31T04:23:32;16.00;71.20
60495;DHT22;46342;49.046;11.920;2023-08-31T04:25:58;16.00;71.30
60495;DHT22;46342;49.046;11.920;2023-08-31T04:28:23;16.00;71.40
60495;DHT22;46342;49.046;11.920;2023-08-31T04:30:49;16.00;71.40
60495;DHT22;46342;49.046;11.920;2023-08-31T04:33:15;16.00;71.40
60495;DHT22;46342;49.046;11.920;2023-08-31T04:35:41;16.10;71.60
60495;DHT22;46342;49.046;11.920;2023-08-31T04:38:07;16.00;71.50
60495;DHT22;46342;49.046;11.920;2023-08-31T04:40:32;16.10;71.60
60495;DHT22;46342;49.046;11.920;2023-08-31T04:42:58;16.00;71.40
60495;DHT22;46342;49.046;11.920;2023-08-31T04:45:24;16.00;71.40
60495;DHT22;46342;49.046;11.920;2023-08-31T04:47:49;16.00;71.40
60495;DHT22;46342;49.046;11.920;2023-08-31T04:50:16;16.00;71.30
60495;DHT22;46342;49.046;11.920;2023-08-31T04:52:42;16.00;71.20
60495;DHT22;46342;49.046;11.920;2023-08-31T04:55:08;16.00;71.20
60495;DHT22;46342;49.046;11.920;2023-08-31T04:57:34;16.00;71.20
60495;DHT22;46342;49.046;11.920;2023-08-31T04:59:59;16.00;71.10
60495;DHT22;46342;49.046;11.920;2023-08-31T05:02:25;16.00;71.00
60495;DHT22;46342;49.046;11.920;2023-08-31T05:04:51;16.00;71.00
60495;DHT22;46342;49.046;11.920;2023-08-31T05:07:16;16.00;71.10
60495;DHT22;46342;49.046;11.920;2023-08-31T05:09:42;15.90;71.00
60495;DHT22;46342;49.046;11.920;2023-08-31T05:12:08;15.90;70.90
60495;DHT22;46342;49.046;11.920;2023-08-31T05:14:33;15.90;71.00
60495;DHT22;46342;49.046;11.920;2023-08-31T05:17:03;15.90;71.00
60495;DHT22;46342;49.046;11.920;2023-08-31T05:19:30;15.90;71.10
60495;DHT22;46342;49.046;11.920;2023-08-31T05:21:55;15.90;71.10
60495;DHT22;46342;49.046;11.920;2023-08-31T05:24:21;15.80;70.90
60495;DHT22;46342;49.046;11.920;2023-08-31T05:26:46;15.80;70.90
60495;DHT22;46342;49.046;11.920;2023-08-31T05:29:12;15.80;70.90
60495;DHT22;46342;49.046;11.920;2023-08-31T05:31:37;16.20;71.40
60495;DHT22;46342;49.046;11.920;2023-08-31T05:34:03;15.80;70.90
60495;DHT22;46342;49.046;11.920;2023-08-31T05:36:29;16.10;71.40
60495;DHT22;46342;49.046;11.920;2023-08-31T05:38:54;15.80;71.10
60495;DHT22;46342;49.046;11.920;2023-08-31T05:41:20;15.80;71.20
60495;DHT22;46342;49.046;11.920;2023-08-31T05:43:46;15.80;71.20
60495;DHT22;46342;49.046;11.920;2023-08-31T05:46:11;15.90;71.40
60495;DHT22;46342;49.046;11.920;2023-08-31T05:48:37;15.80;71.30
60495;DHT22;46342;49.046;11.920;2023-08-31T05:51:03;15.80;71.30
60495;DHT22;46342;49.046;11.920;2023-08-31T05:53:31;15.80;71.40
60495;DHT22;46342;49.046;11.920;2023-08-31T05:55:58;15.80;71.30
60495;DHT22;46342;49.046;11.920;2023-08-31T05:58:31;15.80;71.40
60495;DHT22;46342;49.046;11.920;2023-08-31T06:00:57;16.10;71.70
60495;DHT22;46342;49.046;11.920;2023-08-31T06:03:22;15.90;71.40
60495;DHT22;46342;49.046;11.920;2023-08-31T06:05:48;15.80;71.10
60495;DHT22;46342;49.046;11.920;2023-08-31T06:08:14;15.80;71.10
60495;DHT22;46342;49.046;11.920;2023-08-31T06:10:39;15.80;71.10
60495;DHT22;46342;49.046;11.920;2023-08-31T06:13:05;15.80;71.10
60495;DHT22;46342;49.046;11.920;2023-08-31T06:15:30;15.80;71.20
60495;DHT22;46342;49.046;11.920;2023-08-31T06:17:56;15.80;71.10
60495;DHT22;46342;49.046;11.920;2023-08-31T06:20:21;16.10;71.60
60495;DHT22;46342;49.046;11.920;2023-08-31T06:22:47;15.80;71.20
60495;DHT22;46342;49.046;11.920;2023-08-31T06:25:13;15.80;71.30
60495;DHT22;46342;49.046;11.920;2023-08-31T06:27:42;15.80;71.30
60495;DHT22;46342;49.046;11.920;2023-08-31T06:30:08;15.80;71.40
60495;DHT22;46342;49.046;11.920;2023-08-31T06:32:34;15.80;71.40
60495;DHT22;46342;49.046;11.920;2023-08-31T06:35:00;15.80;71.50
60495;DHT22;46342;49.046;11.920;2023-08-31T06:37:25;15.90;71.70
60495;DHT22;46342;49.046;11.920;2023-08-31T06:39:51;15.90;71.70
60495;DHT22;46342;49.046;11.920;2023-08-31T06:42:16;15.90;71.60
60495;DHT22;46342;49.046;11.920;2023-08-31T06:44:42;15.90;71.50
60495;DHT22;46342;49.046;11.920;2023-08-31T06:47:07;16.00;71.60
60495;DHT22;46342;49.046;11.920;2023-08-31T06:49:33;16.00;71.60
60495;DHT22;46342;49.046;11.920;2023-08-31T06:52:02;16.00;71.60
60495;DHT22;46342;49.046;11.920;2023-08-31T06:54:28;16.00;71.80
60495;DHT22;46342;49.046;11.920;2023-08-31T06:56:54;16.00;71.70
60495;DHT22;46342;49.046;11.920;2023-08-31T06:59:19;16.00;71.80
60495;DHT22;46342;49.046;11.920;2023-08-31T07:01:45;16.10;71.90
60495;DHT22;46342;49.046;11.920;2023-08-31T07:04:10;16.10;71.90
60495;DHT22;46342;49.046;11.920;2023-08-31T07:06:36;16.10;72.00
60495;DHT22;46342;49.046;11.920;2023-08-31T07:09:02;16.10;71.80
60495;DHT22;46342;49.046;11.920;2023-08-31T07:11:30;16.20;71.70
60495;DHT22;46342;49.046;11.920;2023-08-31T07:13:56;16.20;72.20
60495;DHT22;46342;49.046;11.920;2023-08-31T07:16:23;16.20;71.50
60495;DHT22;46342;49.046;11.920;2023-08-31T07:18:48;16.30;71.70
60495;DHT22;46342;49.046;11.920;2023-08-31T07:21:14;16.30;71.60
60495;DHT22;46342;49.046;11.920;2023-08-31T07:23:39;16.30;71.60
60495;DHT22;46342;49.046;11.920;2023-08-31T07:26:05;16.30;71.40
60495;DHT22;46342;49.046;11.920;2023-08-31T07:28:30;16.30;72.20
60495;DHT22;46342;49.046;11.920;2023-08-31T07:31:06;16.40;71.40
60495;DHT22;46342;49.046;11.920;2023-08-31T07:33:32;16.70;71.70
60495;DHT22;46342;49.046;11.920;2023-08-31T07:36:00;16.50;71.70
60495;DHT22;46342;49.046;11.920;2023-08-31T07:38:27;16.70;71.90
60495;DHT22;46342;49.046;11.920;2023-08-31T07:40:53;16.50;71.60
60495;DHT22;46342;49.046;11.920;2023-08-31T07:43:18;16.60;71.70
60495;DHT22;46342;49.046;11.920;2023-08-31T07:45:44;16.80;71.80
60495;DHT22;46342;49.046;11.920;2023-08-31T07:48:10;16.70;71.50
60495;DHT22;46342;49.046;11.920;2023-08-31T07:50:35;16.70;71.30
60495;DHT22;46342;49.046;11.920;2023-08-31T07:53:01;16.70;71.30
60495;DHT22;46342;49.046;11.920;2023-08-31T07:55:26;16.70;71.20
60495;DHT22;46342;49.046;11.920;2023-08-31T07:57:52;16.80;71.20
60495;DHT22;46342;49.046;11.920;2023-08-31T08:00:18;16.80;71.20
60495;DHT22;46342;49.046;11.920;2023-08-31T08:02:47;16.90;72.20
60495;DHT22;46342;49.046;11.920;2023-08-31T08:05:12;16.90;71.10
60495;DHT22;46342;49.046;11.920;2023-08-31T08:07:38;17.00;71.40
60495;DHT22;46342;49.046;11.920;2023-08-31T08:10:03;17.00;71.50
60495;DHT22;46342;49.046;11.920;2023-08-31T08:12:39;17.10;71.60
60495;DHT22;46342;49.046;11.920;2023-08-31T08:15:06;17.20;71.00
60495;DHT22;46342;49.046;11.920;2023-08-31T08:17:33;17.20;71.10
60495;DHT22;46342;49.046;11.920;2023-08-31T08:19:58;17.30;71.00
60495;DHT22;46342;49.046;11.920;2023-08-31T08:22:25;17.30;70.90
60495;DHT22;46342;49.046;11.920;2023-08-31T08:24:50;17.50;70.90
60495;DHT22;46342;49.046;11.920;2023-08-31T08:27:16;17.40;70.70
60495;DHT22;46342;49.046;11.920;2023-08-31T08:29:43;17.50;70.70
60495;DHT22;46342;49.046;11.920;2023-08-31T08:32:09;17.50;70.70
60495;DHT22;46342;49.046;11.920;2023-08-31T08:34:35;17.50;70.50
60495;DHT22;46342;49.046;11.920;2023-08-31T08:37:00;17.60;70.40
60495;DHT22;46342;49.046;11.920;2023-08-31T08:39:26;17.60;70.40
60495;DHT22;46342;49.046;11.920;2023-08-31T08:41:54;17.70;70.00
60495;DHT22;46342;49.046;11.920;2023-08-31T08:44:22;17.80;69.50
60495;DHT22;46342;49.046;11.920;2023-08-31T08:46:51;17.80;69.30
60495;DHT22;46342;49.046;11.920;2023-08-31T08:49:18;17.80;69.00
60495;DHT22;46342;49.046;11.920;2023-08-31T08:51:45;17.90;69.20
60495;DHT22;46342;49.046;11.920;2023-08-31T08:54:12;17.90;69.00
60495;DHT22;46342;49.046;11.920;2023-08-31T08:56:38;18.00;68.10
60495;DHT22;46342;49.046;11.920;2023-08-31T08:59:03;18.20;69.30
60495;DHT22;46342;49.046;11.920;2023-08-31T09:01:30;18.10;69.10
60495;DHT22;46342;49.046;11.920;2023-08-31T09:03:56;18.10;68.80
60495;DHT22;46342;49.046;11.920;2023-08-31T09:06:22;18.20;68.80
60495;DHT22;46342;49.046;11.920;2023-08-31T09:08:54;18.20;68.60
60495;DHT22;46342;49.046;11.920;2023-08-31T09:11:21;18.30;67.10
60495;DHT22;46342;49.046;11.920;2023-08-31T09:13:49;18.30;68.20
60495;DHT22;46342;49.046;11.920;2023-08-31T09:16:29;18.30;68.00
60495;DHT22;46342;49.046;11.920;2023-08-31T09:18:56;18.40;66.10
60495;DHT22;46342;49.046;11.920;2023-08-31T09:21:22;18.40;67.40
60495;DHT22;46342;49.046;11.920;2023-08-31T09:23:56;18.50;67.40
60495;DHT22;46342;49.046;11.920;2023-08-31T09:26:25;18.50;66.40
60495;DHT22;46342;49.046;11.920;2023-08-31T09:28:50;18.60;67.60
60495;DHT22;46342;49.046;11.920;2023-08-31T09:31:17;18.70;67.60
60495;DHT22;46342;49.046;11.920;2023-08-31T09:33:50;18.70;67.40
60495;DHT22;46342;49.046;11.920;2023-08-31T09:36:16;18.80;66.00
60495;DHT22;46342;49.046;11.920;2023-08-31T09:38:42;18.80;67.00
60495;DHT22;46342;49.046;11.920;2023-08-31T09:41:11;18.90;67.80
60495;DHT22;46342;49.046;11.920;2023-08-31T09:43:37;18.80;66.20
60495;DHT22;46342;49.046;11.920;2023-08-31T09:46:04;18.80;65.70
60495;DHT22;46342;49.046;11.920;2023-08-31T09:48:30;18.80;65.10
60495;DHT22;46342;49.046;11.920;2023-08-31T09:50:56;18.90;65.30
60495;DHT22;46342;49.046;11.920;2023-08-31T09:53:24;18.80;64.90
60495;DHT22;46342;49.046;11.920;2023-08-31T09:55:51;18.80;64.00
60495;DHT22;46342;49.046;11.920;2023-08-31T09:58:21;18.80;64.40
60495;DHT22;46342;49.046;11.920;2023-08-31T10:00:48;18.90;63.70
60495;DHT22;46342;49.046;11.920;2023-08-31T10:03:14;18.90;64.70
60495;DHT22;46342;49.046;11.920;2023-08-31T10:05:43;18.90;65.10
60495;DHT22;46342;49.046;11.920;2023-08-31T10:08:09;18.90;64.80
60495;DHT22;46342;49.046;11.920;2023-08-31T10:10:35;19.00;64.40
60495;DHT22;46342;49.046;11.920;2023-08-31T10:13:03;19.00;65.50
60495;DHT22;46342;49.046;11.920;2023-08-31T10:15:32;19.10;65.70
60495;DHT22;46342;49.046;11.920;2023-08-31T10:18:06;19.10;65.00
60495;DHT22;46342;49.046;11.920;2023-08-31T10:20:33;19.20;65.20
60495;DHT22;46342;49.046;11.920;2023-08-31T10:23:02;19.20;64.80
60495;DHT22;46342;49.046;11.920;2023-08-31T10:28:22;19.30;62.60
60495;DHT22;46342;49.046;11.920;2023-08-31T10:31:03;19.30;63.30
60495;DHT22;46342;49.046;11.920;2023-08-31T10:33:34;19.30;60.80
60495;DHT22;46342;49.046;11.920;2023-08-31T10:36:00;19.30;62.30
60495;DHT22;46342;49.046;11.920;2023-08-31T10:43:25;19.40;62.30
60495;DHT22;46342;49.046;11.920;2023-08-31T10:45:51;19.30;63.50
60495;DHT22;46342;49.046;11.920;2023-08-31T10:48:17;19.30;63.30
60495;DHT22;46342;49.046;11.920;2023-08-31T10:50:45;19.40;63.10
60495;DHT22;46342;49.046;11.920;2023-08-31T10:53:13;19.40;62.50
60495;DHT22;46342;49.046;11.920;2023-08-31T10:55:54;19.40;62.80
60495;DHT22;46342;49.046;11.920;2023-08-31T10:58:19;19.50;60.80
60495;DHT22;46342;49.046;11.920;2023-08-31T11:00:52;19.50;62.90
60495;DHT22;46342;49.046;11.920;2023-08-31T11:03:18;19.60;61.60
60495;DHT22;46342;49.046;11.920;2023-08-31T11:05:53;19.60;62.70
60495;DHT22;46342;49.046;11.920;2023-08-31T11:08:23;19.70;60.80
60495;DHT22;46342;49.046;11.920;2023-08-31T11:10:49;19.70;61.50
60495;DHT22;46342;49.046;11.920;2023-08-31T11:13:19;19.80;62.80
60495;DHT22;46342;49.046;11.920;2023-08-31T11:15:48;19.80;62.60
60495;DHT22;46342;49.046;11.920;2023-08-31T11:18:14;19.90;62.10
60495;DHT22;46342;49.046;11.920;2023-08-31T11:20:43;19.90;63.00
60495;DHT22;46342;49.046;11.920;2023-08-31T11:23:09;20.00;62.80
60495;DHT22;46342;49.046;11.920;2023-08-31T11:25:35;20.10;62.80
60495;DHT22;46342;49.046;11.920;2023-08-31T11:28:03;20.20;62.50
60495;DHT22;46342;49.046;11.920;2023-08-31T11:30:36;20.30;61.30
60495;DHT22;46342;49.046;11.920;2023-08-31T11:33:08;20.30;61.10
60495;DHT22;46342;49.046;11.920;2023-08-31T11:35:38;20.40;59.60
60495;DHT22;46342;49.046;11.920;2023-08-31T11:38:06;20.40;60.20
60495;DHT22;46342;49.046;11.920;2023-08-31T11:40:32;20.50;60.40
60495;DHT22;46342;49.046;11.920;2023-08-31T11:42:58;20.50;59.80
60495;DHT22;46342;49.046;11.920;2023-08-31T11:45:29;20.50;60.10
60495;DHT22;46342;49.046;11.920;2023-08-31T11:47:55;20.60;59.60
60495;DHT22;46342;49.046;11.920;2023-08-31T11:50:22;20.60;59.40
60495;DHT22;46342;49.046;11.920;2023-08-31T11:52:48;20.70;59.30
60495;DHT22;46342;49.046;11.920;2023-08-31T11:55:15;20.70;59.10
60495;DHT22;46342;49.046;11.920;2023-08-31T11:57:51;20.80;58.90
60495;DHT22;46342;49.046;11.920;2023-08-31T12:00:17;20.80;58.00
60495;DHT22;46342;49.046;11.920;2023-08-31T12:02:43;20.90;58.80
60495;DHT22;46342;49.046;11.920;2023-08-31T12:05:11;20.90;58.70
60495;DHT22;46342;49.046;11.920;2023-08-31T12:07:40;21.00;58.30
60495;DHT22;46342;49.046;11.920;2023-08-31T12:10:07;21.00;57.40
60495;DHT22;46342;49.046;11.920;2023-08-31T12:12:33;21.10;58.30
60495;DHT22;46342;49.046;11.920;2023-08-31T12:15:01;21.10;58.40
60495;DHT22;46342;49.046;11.920;2023-08-31T12:17:29;21.20;57.90
60495;DHT22;46342;49.046;11.920;2023-08-31T12:20:02;21.20;58.20
60495;DHT22;46342;49.046;11.920;2023-08-31T12:22:30;21.40;56.70
60495;DHT22;46342;49.046;11.920;2023-08-31T12:24:55;21.50;58.10
60495;DHT22;46342;49.046;11.920;2023-08-31T12:27:21;21.50;57.70
60495;DHT22;46342;49.046;11.920;2023-08-31T12:29:46;21.60;57.40
60495;DHT22;46342;49.046;11.920;2023-08-31T12:32:12;21.60;57.40
60495;DHT22;46342;49.046;11.920;2023-08-31T12:34:38;21.60;57.10
60495;DHT22;46342;49.046;11.920;2023-08-31T12:37:03;21.70;56.80
60495;DHT22;46342;49.046;11.920;2023-08-31T12:39:30;21.90;56.90
60495;DHT22;46342;49.046;11.920;2023-08-31T12:41:56;21.90;57.40
60495;DHT22;46342;49.046;11.920;2023-08-31T12:44:21;21.90;56.90
60495;DHT22;46342;49.046;11.920;2023-08-31T12:46:47;22.00;57.00
60495;DHT22;46342;49.046;11.920;2023-08-31T12:49:12;22.10;57.00
60495;DHT22;46342;49.046;11.920;2023-08-31T12:51:38;22.20;56.70
60495;DHT22;46342;49.046;11.920;2023-08-31T12:54:04;22.20;56.40
60495;DHT22;46342;49.046;11.920;2023-08-31T12:56:29;22.30;56.20
60495;DHT22;46342;49.046;11.920;2023-08-31T12:58:55;22.30;56.60
60495;DHT22;46342;49.046;11.920;2023-08-31T13:01:21;22.30;55.90
60495;DHT22;46342;49.046;11.920;2023-08-31T13:03:48;22.30;55.70
60495;DHT22;46342;49.046;11.920;2023-08-31T13:06:14;22.40;55.70
60495;DHT22;46342;49.046;11.920;2023-08-31T13:08:41;22.40;55.30
60495;DHT22;46342;49.046;11.920;2023-08-31T13:11:08;22.50;55.30
60495;DHT22;46342;49.046;11.920;2023-08-31T13:13:34;22.60;55.40
60495;DHT22;46342;49.046;11.920;2023-08-31T13:16:00;22.60;55.30
60495;DHT22;46342;49.046;11.920;2023-08-31T13:18:26;22.60;55.10
60495;DHT22;46342;49.046;11.920;2023-08-31T13:20:52;22.70;55.00
60495;DHT22;46342;49.046;11.920;2023-08-31T13:23:19;22.70;54.60
60495;DHT22;46342;49.046;11.920;2023-08-31T13:25:45;22.80;55.00
60495;DHT22;46342;49.046;11.920;2023-08-31T13:28:10;22.80;54.80
60495;DHT22;46342;49.046;11.920;2023-08-31T13:30:36;22.80;54.70
60495;DHT22;46342;49.046;11.920;2023-08-31T13:33:02;22.90;54.70
60495;DHT22;46342;49.046;11.920;2023-08-31T13:35:29;22.90;54.60
60495;DHT22;46342;49.046;11.920;2023-08-31T13:37:55;23.00;54.40
60495;DHT22;46342;49.046;11.920;2023-08-31T13:40:20;23.00;54.10
60495;DHT22;46342;49.046;11.920;2023-08-31T13:42:56;23.10;53.80
60495;DHT22;46342;49.046;11.920;2023-08-31T13:45:24;23.10;51.60
60495;DHT22;46342;49.046;11.920;2023-08-31T13:47:50;23.10;53.50
60495;DHT22;46342;49.046;11.920;2023-08-31T13:50:16;23.10;53.20
60495;DHT22;46342;49.046;11.920;2023-08-31T13:52:42;23.10;53.30
60495;DHT22;46342;49.046;11.920;2023-08-31T13:55:08;23.10;53.40
60495;DHT22;46342;49.046;11.920;2023-08-31T13:57:33;23.10;53.30
60495;DHT22;46342;49.046;11.920;2023-08-31T13:59:59;23.20;53.60
60495;DHT22;46342;49.046;11.920;2023-08-31T14:02:25;23.20;53.40
60495;DHT22;46342;49.046;11.920;2023-08-31T14:04:51;23.30;53.40
60495;DHT22;46342;49.046;11.920;2023-08-31T14:07:17;23.30;53.30
60495;DHT22;46342;49.046;11.920;2023-08-31T14:09:42;23.30;53.00
60495;DHT22;46342;49.046;11.920;2023-08-31T14:12:08;23.30;52.80
60495;DHT22;46342;49.046;11.920;2023-08-31T14:14:34;23.30;52.60
60495;DHT22;46342;49.046;11.920;2023-08-31T14:17:00;23.30;51.90
60495;DHT22;46342;49.046;11.920;2023-08-31T14:19:25;23.20;51.90
60495;DHT22;46342;49.046;11.920;2023-08-31T14:21:51;23.30;51.80
60495;DHT22;46342;49.046;11.920;2023-08-31T14:24:18;23.30;51.80
60495;DHT22;46342;49.046;11.920;2023-08-31T14:26:44;23.20;51.90
60495;DHT22;46342;49.046;11.920;2023-08-31T14:29:10;23.20;52.40
60495;DHT22;46342;49.046;11.920;2023-08-31T14:31:36;23.20;51.80
60495;DHT22;46342;49.046;11.920;2023-08-31T14:34:01;23.20;51.80
60495;DHT22;46342;49.046;11.920;2023-08-31T14:36:27;23.20;51.70
60495;DHT22;46342;49.046;11.920;2023-08-31T14:38:53;23.10;51.40
60495;DHT22;46342;49.046;11.920;2023-08-31T14:41:18;23.20;51.40
60495;DHT22;46342;49.046;11.920;2023-08-31T14:43:44;23.20;51.30
60495;DHT22;46342;49.046;11.920;2023-08-31T14:46:09;23.20;51.30
60495;DHT22;46342;49.046;11.920;2023-08-31T14:48:35;23.10;51.30
60495;DHT22;46342;49.046;11.920;2023-08-31T14:51:00;23.20;51.30
60495;DHT22;46342;49.046;11.920;2023-08-31T14:53:27;23.20;51.00
60495;DHT22;46342;49.046;11.920;2023-08-31T14:55:53;23.20;50.60
60495;DHT22;46342;49.046;11.920;2023-08-31T14:58:19;23.00;50.40
60495;DHT22;46342;49.046;11.920;2023-08-31T15:00:45;23.00;50.40
60495;DHT22;46342;49.046;11.920;2023-08-31T15:03:11;23.00;50.70
60495;DHT22;46342;49.046;11.920;2023-08-31T15:05:37;22.90;50.70
60495;DHT22;46342;49.046;11.920;2023-08-31T15:08:05;23.00;50.80
60495;DHT22;46342;49.046;11.920;2023-08-31T15:10:31;23.00;50.30
60495;DHT22;46342;49.046;11.920;2023-08-31T15:12:56;22.90;50.60
60495;DHT22;46342;49.046;11.920;2023-08-31T15:15:28;22.90;50.50
60495;DHT22;46342;49.046;11.920;2023-08-31T15:17:54;22.90;49.80
60495;DHT22;46342;49.046;11.920;2023-08-31T15:20:20;22.90;50.40
60495;DHT22;46342;49.046;11.920;2023-08-31T15:22:47;22.90;50.50
60495;DHT22;46342;49.046;11.920;2023-08-31T15:25:12;22.90;50.40
60495;DHT22;46342;49.046;11.920;2023-08-31T15:27:38;22.90;50.30